createdAt,value
2018-06-12T00:00:57.039Z,0.00
2018-06-12T00:01:56.282Z,0.00
2018-06-12T00:02:56.294Z,0.00
2018-06-12T00:03:56.323Z,0.00
2018-06-12T00:04:56.255Z,0.00
2018-06-12T00:05:56.297Z,0.00
2018-06-12T00:07:16.817Z,0.00
2018-06-12T00:07:56.242Z,0.00
2018-06-12T00:08:56.234Z,0.00
2018-06-12T00:10:08.759Z,0.00
2018-06-12T00:10:56.228Z,0.00
2018-06-12T00:11:56.279Z,0.00
2018-06-12T00:12:56.195Z,0.00
2018-06-12T00:13:56.180Z,0.00
2018-06-12T00:14:56.167Z,0.00
2018-06-12T00:15:57.846Z,0.00
2018-06-12T00:16:56.370Z,0.00
2018-06-12T00:19:46.951Z,0.00
2018-06-12T00:20:45.800Z,0.00
2018-06-12T00:21:45.747Z,0.00
2018-06-12T00:22:46.567Z,0.00
2018-06-12T00:23:56.418Z,0.00
2018-06-12T00:26:20.572Z,0.00
2018-06-12T00:27:20.517Z,0.00
2018-06-12T00:28:20.524Z,0.00
2018-06-12T00:31:15.121Z,0.00
2018-06-12T00:32:08.699Z,0.00
2018-06-12T00:33:13.671Z,0.00
2018-06-12T00:40:46.026Z,0.00
2018-06-12T00:44:13.114Z,0.00
2018-06-12T00:45:11.154Z,0.00
2018-06-12T00:53:07.730Z,0.00
2018-06-12T00:54:07.679Z,0.00
2018-06-12T00:56:16.683Z,0.00
2018-06-12T00:58:01.586Z,0.00
2018-06-12T00:59:28.516Z,0.00
2018-06-12T00:59:56.271Z,0.00
2018-06-12T01:00:56.268Z,0.00
2018-06-12T01:01:56.282Z,0.00
2018-06-12T01:21:50.397Z,0.00
2018-06-12T01:22:39.423Z,0.00
2018-06-12T01:23:39.471Z,0.00
2018-06-12T01:24:39.403Z,0.00
2018-06-12T01:25:39.670Z,0.00
2018-06-12T01:26:39.479Z,0.00
2018-06-12T01:27:39.461Z,0.00
2018-06-12T01:28:39.372Z,0.00
2018-06-12T01:29:39.429Z,0.00
2018-06-12T01:30:39.339Z,0.00
2018-06-12T01:31:39.334Z,0.00
2018-06-12T01:32:39.316Z,0.00
2018-06-12T01:33:39.349Z,0.00
2018-06-12T01:34:39.346Z,0.00
2018-06-12T01:35:39.309Z,0.00
2018-06-12T01:36:39.266Z,0.00
2018-06-12T01:37:39.281Z,0.00
2018-06-12T01:38:39.265Z,0.00
2018-06-12T01:39:39.344Z,0.00
2018-06-12T01:40:39.254Z,0.00
2018-06-12T01:44:41.438Z,0.00
2018-06-12T01:45:34.026Z,0.00
2018-06-12T01:46:34.011Z,0.00
2018-06-12T01:47:34.020Z,0.00
2018-06-12T01:48:34.136Z,0.00
2018-06-12T01:50:11.447Z,0.00
2018-06-12T01:50:34.459Z,0.00
2018-06-12T01:51:33.929Z,0.00
2018-06-12T01:52:33.970Z,0.00
2018-06-12T01:53:34.436Z,0.00
2018-06-12T01:57:26.985Z,0.00
2018-06-12T01:58:26.915Z,0.00
2018-06-12T01:59:26.956Z,0.00
2018-06-12T02:00:26.907Z,0.00
2018-06-12T02:02:54.178Z,0.00
2018-06-12T02:03:21.759Z,0.00
2018-06-12T02:03:54.692Z,0.00
2018-06-12T02:04:54.673Z,0.00
2018-06-12T02:05:54.671Z,0.00
2018-06-12T02:06:54.669Z,0.00
2018-06-12T02:07:54.706Z,0.00
2018-06-12T02:08:54.660Z,0.00
2018-06-12T02:09:54.654Z,0.00
2018-06-12T02:10:54.615Z,0.00
2018-06-12T02:11:54.952Z,0.00
2018-06-12T02:12:54.618Z,0.00
2018-06-12T02:13:54.603Z,0.00
2018-06-12T02:14:54.581Z,0.00
2018-06-12T02:15:54.577Z,0.00
2018-06-12T02:16:54.555Z,0.00
2018-06-12T02:17:54.556Z,0.00
2018-06-12T02:18:54.596Z,0.00
2018-06-12T02:19:54.540Z,0.00
2018-06-12T02:20:54.530Z,0.00
2018-06-12T02:21:54.519Z,0.00
2018-06-12T02:22:54.509Z,0.00
2018-06-12T02:23:54.526Z,0.00
2018-06-12T02:24:54.483Z,0.00
2018-06-12T02:25:54.482Z,0.00
2018-06-12T02:26:54.467Z,0.00
2018-06-12T02:27:54.462Z,0.00
2018-06-12T02:28:55.646Z,0.00
2018-06-12T02:29:54.451Z,4.00
2018-06-12T02:30:54.436Z,0.00
2018-06-12T02:31:54.404Z,0.00
2018-06-12T02:32:54.410Z,0.00
2018-06-12T02:33:54.431Z,0.00
2018-06-12T02:34:54.384Z,4.00
2018-06-12T02:35:54.377Z,4.00
2018-06-12T02:36:54.376Z,0.00
2018-06-12T02:37:54.489Z,0.00
2018-06-12T02:38:54.375Z,4.00
2018-06-12T02:39:54.335Z,0.00
2018-06-12T02:40:54.313Z,4.00
2018-06-12T02:41:54.324Z,4.00
2018-06-12T02:42:57.290Z,0.00
2018-06-12T02:43:54.324Z,4.00
2018-06-12T02:44:54.289Z,4.00
2018-06-12T02:45:54.283Z,4.00
2018-06-12T02:46:54.251Z,4.00
2018-06-12T02:47:54.260Z,8.00
2018-06-12T02:48:54.383Z,4.00
2018-06-12T02:49:54.220Z,8.00
2018-06-12T02:50:54.213Z,8.00
2018-06-12T02:51:54.229Z,8.00
2018-06-12T02:52:54.205Z,8.00
2018-06-12T02:53:54.195Z,8.00
2018-06-12T02:54:54.230Z,12.00
2018-06-12T02:55:54.387Z,16.00
2018-06-12T02:56:54.167Z,12.00
2018-06-12T02:57:54.169Z,16.00
2018-06-12T02:58:54.268Z,16.00
2018-06-12T02:59:54.189Z,20.00
2018-06-12T03:00:54.117Z,20.00
2018-06-12T03:01:54.123Z,24.00
2018-06-12T03:02:54.114Z,28.00
2018-06-12T03:03:54.207Z,32.00
2018-06-12T03:04:54.074Z,32.00
2018-06-12T03:05:54.157Z,36.00
2018-06-12T03:06:54.053Z,36.00
2018-06-12T03:07:54.048Z,40.00
2018-06-12T03:08:54.052Z,44.00
2018-06-12T03:09:54.022Z,48.00
2018-06-12T03:10:54.021Z,56.00
2018-06-12T03:11:54.045Z,56.00
2018-06-12T03:12:54.028Z,64.00
2018-06-12T03:13:53.989Z,64.00
2018-06-12T03:14:53.978Z,68.00
2018-06-12T03:15:53.966Z,76.00
2018-06-12T03:16:53.981Z,72.00
2018-06-12T03:17:53.988Z,80.00
2018-06-12T03:18:53.939Z,88.00
2018-06-12T03:19:53.923Z,92.00
2018-06-12T03:20:53.950Z,100.00
2018-06-12T03:21:53.914Z,108.00
2018-06-12T03:22:53.891Z,116.00
2018-06-12T03:23:53.892Z,124.00
2018-06-12T03:24:53.945Z,128.00
2018-06-12T03:25:53.869Z,136.00
2018-06-12T03:26:53.864Z,140.00
2018-06-12T03:27:53.878Z,152.00
2018-06-12T03:28:53.903Z,156.00
2018-06-12T03:29:55.297Z,168.00
2018-06-12T03:30:53.855Z,180.00
2018-06-12T03:31:53.817Z,192.00
2018-06-12T03:32:53.789Z,196.00
2018-06-12T03:33:53.835Z,204.00
2018-06-12T03:35:21.090Z,220.00
2018-06-12T03:35:53.752Z,232.00
2018-06-12T03:36:53.781Z,232.00
2018-06-12T03:37:53.723Z,240.00
2018-06-12T03:38:53.727Z,252.00
2018-06-12T03:39:53.722Z,260.00
2018-06-12T03:40:53.854Z,268.00
2018-06-12T03:41:53.705Z,284.00
2018-06-12T03:42:53.700Z,292.00
2018-06-12T03:43:53.762Z,304.00
2018-06-12T03:44:53.686Z,304.00
2018-06-12T03:45:53.661Z,308.00
2018-06-12T03:46:53.703Z,316.00
2018-06-12T03:47:53.631Z,324.00
2018-06-12T03:48:53.636Z,344.00
2018-06-12T03:49:53.629Z,344.00
2018-06-12T03:50:53.932Z,348.00
2018-06-12T03:51:53.599Z,340.00
2018-06-12T03:52:53.589Z,336.00
2018-06-12T03:53:53.582Z,344.00
2018-06-12T03:54:53.577Z,356.00
2018-06-12T03:55:53.630Z,376.00
2018-06-12T03:56:53.544Z,388.00
2018-06-12T03:57:53.544Z,396.00
2018-06-12T03:58:53.552Z,408.00
2018-06-12T03:59:53.521Z,412.00
2018-06-12T04:00:53.518Z,392.00
2018-06-12T04:01:53.791Z,396.00
2018-06-12T04:02:53.481Z,388.00
2018-06-12T04:03:53.485Z,380.00
2018-06-12T04:04:53.471Z,380.00
2018-06-12T04:05:53.451Z,404.00
2018-06-12T04:06:53.460Z,448.00
2018-06-12T04:07:53.478Z,468.00
2018-06-12T04:08:53.431Z,476.00
2018-06-12T04:09:53.428Z,476.00
2018-06-12T04:10:53.414Z,468.00
2018-06-12T04:11:53.402Z,500.00
2018-06-12T04:12:53.453Z,440.00
2018-06-12T04:13:53.365Z,460.00
2018-06-12T04:14:53.397Z,480.00
2018-06-12T04:15:53.363Z,488.00
2018-06-12T04:16:53.356Z,500.00
2018-06-12T04:17:53.333Z,488.00
2018-06-12T04:18:53.744Z,464.00
2018-06-12T04:19:53.343Z,464.00
2018-06-12T04:20:53.310Z,452.00
2018-06-12T04:21:53.290Z,472.00
2018-06-12T04:22:53.286Z,480.00
2018-06-12T04:23:53.278Z,492.00
2018-06-12T04:24:53.270Z,504.00
2018-06-12T04:25:53.257Z,516.00
2018-06-12T04:26:53.237Z,532.00
2018-06-12T04:27:53.241Z,552.00
2018-06-12T04:28:53.428Z,568.00
2018-06-12T04:29:53.209Z,576.00
2018-06-12T04:30:53.260Z,584.00
2018-06-12T04:31:53.205Z,592.00
2018-06-12T04:32:53.175Z,632.00
2018-06-12T04:33:53.177Z,656.00
2018-06-12T04:34:53.161Z,704.00
2018-06-12T04:35:53.149Z,700.00
2018-06-12T04:36:53.149Z,720.00
2018-06-12T04:37:53.131Z,768.00
2018-06-12T04:38:53.121Z,800.00
2018-06-12T04:39:53.104Z,876.00
2018-06-12T04:40:53.130Z,936.00
2018-06-12T04:41:53.108Z,960.00
2018-06-12T04:42:53.097Z,1008.00
2018-06-12T04:43:53.069Z,984.00
2018-06-12T04:44:53.060Z,908.00
2018-06-12T04:45:53.124Z,864.00
2018-06-12T04:46:53.066Z,864.00
2018-06-12T04:47:53.033Z,880.00
2018-06-12T04:48:53.021Z,940.00
2018-06-12T04:49:53.010Z,936.00
2018-06-12T04:50:52.997Z,940.00
2018-06-12T04:51:52.997Z,928.00
2018-06-12T04:52:52.986Z,980.00
2018-06-12T04:53:53.003Z,920.00
2018-06-12T04:54:52.966Z,1008.00
2018-06-12T04:55:52.951Z,1032.00
2018-06-12T04:56:52.938Z,1056.00
2018-06-12T04:57:53.145Z,1056.00
2018-06-12T04:58:53.276Z,1080.00
2018-06-12T04:59:52.913Z,1068.00
2018-06-12T05:00:52.903Z,1052.00
2018-06-12T05:01:52.898Z,1028.00
2018-06-12T05:02:52.894Z,988.00
2018-06-12T05:03:52.901Z,984.00
2018-06-12T05:04:52.881Z,988.00
2018-06-12T05:05:52.877Z,972.00
2018-06-12T05:06:52.838Z,976.00
2018-06-12T05:07:52.832Z,976.00
2018-06-12T05:08:52.825Z,940.00
2018-06-12T05:09:52.818Z,984.00
2018-06-12T05:10:52.932Z,972.00
2018-06-12T05:11:52.801Z,948.00
2018-06-12T05:12:52.787Z,940.00
2018-06-12T05:13:52.776Z,964.00
2018-06-12T05:14:52.768Z,972.00
2018-06-12T05:15:52.759Z,972.00
2018-06-12T05:16:52.758Z,936.00
2018-06-12T05:17:52.740Z,988.00
2018-06-12T05:18:52.746Z,948.00
2018-06-12T05:19:52.773Z,1000.00
2018-06-12T05:20:52.712Z,1052.00
2018-06-12T05:21:52.758Z,1100.00
2018-06-12T05:22:52.696Z,1120.00
2018-06-12T05:23:52.682Z,1172.00
2018-06-12T05:24:52.680Z,1228.00
2018-06-12T05:25:52.665Z,1284.00
2018-06-12T05:26:52.660Z,1328.00
2018-06-12T05:27:52.802Z,1368.00
2018-06-12T05:28:52.641Z,1376.00
2018-06-12T05:29:52.633Z,1396.00
2018-06-12T05:30:52.603Z,1412.00
2018-06-12T05:31:52.596Z,1460.00
2018-06-12T05:32:52.593Z,1468.00
2018-06-12T05:33:52.613Z,1484.00
2018-06-12T05:34:52.574Z,1508.00
2018-06-12T05:35:52.561Z,1568.00
2018-06-12T05:36:52.772Z,1600.00
2018-06-12T05:37:52.550Z,1620.00
2018-06-12T05:38:52.546Z,1620.00
2018-06-12T05:39:52.520Z,1604.00
2018-06-12T05:40:52.514Z,1604.00
2018-06-12T05:41:52.515Z,1640.00
2018-06-12T05:42:52.531Z,1664.00
2018-06-12T05:43:52.493Z,1696.00
2018-06-12T05:44:52.491Z,1648.00
2018-06-12T05:45:52.479Z,1692.00
2018-06-12T05:46:52.518Z,1800.00
2018-06-12T05:47:52.465Z,1812.00
2018-06-12T05:48:52.474Z,1792.00
2018-06-12T05:49:52.473Z,1720.00
2018-06-12T05:50:52.412Z,1832.00
2018-06-12T05:51:52.411Z,1696.00
2018-06-12T05:52:52.410Z,1684.00
2018-06-12T05:53:52.395Z,1632.00
2018-06-12T05:54:52.428Z,1672.00
2018-06-12T05:55:52.378Z,1644.00
2018-06-12T05:56:52.425Z,1632.00
2018-06-12T05:57:52.358Z,1620.00
2018-06-12T05:58:52.352Z,1672.00
2018-06-12T05:59:52.340Z,1736.00
2018-06-12T06:00:52.342Z,1648.00
2018-06-12T06:01:52.320Z,1748.00
2018-06-12T06:02:52.339Z,1780.00
2018-06-12T06:03:52.298Z,1756.00
2018-06-12T06:04:52.296Z,1748.00
2018-06-12T06:05:52.621Z,1788.00
2018-06-12T06:06:52.276Z,1800.00
2018-06-12T06:07:52.260Z,1752.00
2018-06-12T06:08:52.258Z,1780.00
2018-06-12T06:09:52.250Z,1792.00
2018-06-12T06:10:52.233Z,1788.00
2018-06-12T06:11:52.259Z,1864.00
2018-06-12T06:12:52.257Z,1792.00
2018-06-12T06:13:52.214Z,1916.00
2018-06-12T06:14:52.206Z,2008.00
2018-06-12T06:15:52.493Z,1916.00
2018-06-12T06:16:52.217Z,1964.00
2018-06-12T06:17:52.175Z,2064.00
2018-06-12T06:18:52.163Z,2024.00
2018-06-12T06:19:52.147Z,2036.00
2018-06-12T06:20:52.152Z,2048.00
2018-06-12T06:21:52.162Z,2076.00
2018-06-12T06:22:52.128Z,2096.00
2018-06-12T06:23:52.143Z,2068.00
2018-06-12T06:24:52.104Z,2108.00
2018-06-12T06:25:52.088Z,2112.00
2018-06-12T06:26:52.084Z,2124.00
2018-06-12T06:27:52.228Z,2156.00
2018-06-12T06:28:52.070Z,2140.00
2018-06-12T06:29:52.052Z,2024.00
2018-06-12T06:30:52.044Z,1984.00
2018-06-12T06:31:52.041Z,2004.00
2018-06-12T06:32:52.032Z,2208.00
2018-06-12T06:33:52.022Z,2428.00
2018-06-12T06:34:52.000Z,2400.00
2018-06-12T06:35:51.996Z,2384.00
2018-06-12T06:36:52.758Z,2212.00
2018-06-12T06:37:51.987Z,2192.00
2018-06-12T06:38:52.112Z,2300.00
2018-06-12T06:39:51.967Z,2172.00
2018-06-12T06:40:51.958Z,2432.00
2018-06-12T06:41:51.942Z,2748.00
2018-06-12T06:42:51.928Z,3152.00
2018-06-12T06:43:51.930Z,3308.00
2018-06-12T06:44:51.949Z,3232.00
2018-06-12T06:45:51.917Z,3496.00
2018-06-12T06:46:51.897Z,3564.00
2018-06-12T06:47:51.881Z,3592.00
2018-06-12T06:48:51.874Z,3468.00
2018-06-12T06:49:51.881Z,3616.00
2018-06-12T06:50:51.891Z,3532.00
2018-06-12T06:51:51.853Z,3604.00
2018-06-12T06:52:52.047Z,3656.00
2018-06-12T06:53:51.832Z,3668.00
2018-06-12T06:54:51.811Z,3640.00
2018-06-12T06:55:51.824Z,3576.00
2018-06-12T06:56:51.813Z,3516.00
2018-06-12T06:57:51.829Z,3496.00
2018-06-12T06:58:51.881Z,3520.00
2018-06-12T06:59:51.783Z,3476.00
2018-06-12T07:00:51.774Z,3620.00
2018-06-12T07:01:51.762Z,3876.00
2018-06-12T07:02:51.766Z,3976.00
2018-06-12T07:03:51.755Z,3952.00
2018-06-12T07:04:51.801Z,3912.00
2018-06-12T07:05:51.721Z,3784.00
2018-06-12T07:06:51.707Z,3716.00
2018-06-12T07:07:51.731Z,3644.00
2018-06-12T07:08:51.751Z,3608.00
2018-06-12T07:09:51.706Z,3756.00
2018-06-12T07:10:51.692Z,3840.00
2018-06-12T07:11:51.672Z,3984.00
2018-06-12T07:12:51.662Z,4000.00
2018-06-12T07:13:51.659Z,3960.00
2018-06-12T07:14:51.706Z,4032.00
2018-06-12T07:15:51.645Z,4064.00
2018-06-12T07:16:51.630Z,4140.00
2018-06-12T07:17:51.627Z,4144.00
2018-06-12T07:18:51.604Z,4172.00
2018-06-12T07:19:51.740Z,4172.00
2018-06-12T07:20:51.595Z,4208.00
2018-06-12T07:21:51.596Z,4028.00
2018-06-12T07:22:51.580Z,4112.00
2018-06-12T07:23:51.563Z,3968.00
2018-06-12T07:24:51.558Z,4220.00
2018-06-12T07:25:51.556Z,4196.00
2018-06-12T07:26:51.532Z,4312.00
2018-06-12T07:27:51.539Z,4460.00
2018-06-12T07:28:51.516Z,4576.00
2018-06-12T07:29:51.503Z,4644.00
2018-06-12T07:30:52.096Z,4612.00
2018-06-12T07:31:51.512Z,4364.00
2018-06-12T07:32:51.488Z,4412.00
2018-06-12T07:33:51.473Z,4384.00
2018-06-12T07:34:51.559Z,4336.00
2018-06-12T07:35:51.463Z,4228.00
2018-06-12T07:36:51.508Z,4496.00
2018-06-12T07:37:51.504Z,4608.00
2018-06-12T07:38:51.462Z,4620.00
2018-06-12T07:39:51.420Z,4996.00
2018-06-12T07:40:51.420Z,4932.00
2018-06-12T07:41:51.546Z,4824.00
2018-06-12T07:42:51.409Z,4568.00
2018-06-12T07:43:51.386Z,4352.00
2018-06-12T07:44:51.393Z,4088.00
2018-06-12T07:45:51.374Z,3336.00
2018-06-12T07:46:51.370Z,3252.00
2018-06-12T07:47:51.401Z,3272.00
2018-06-12T07:48:51.380Z,2956.00
2018-06-12T07:49:51.356Z,2856.00
2018-06-12T07:50:51.351Z,2900.00
2018-06-12T07:51:51.325Z,3384.00
2018-06-12T07:52:51.345Z,3692.00
2018-06-12T07:53:51.337Z,3656.00
2018-06-12T07:54:51.298Z,3652.00
2018-06-12T07:55:51.312Z,2892.00
2018-06-12T07:56:51.290Z,3412.00
2018-06-12T07:57:51.296Z,3848.00
2018-06-12T07:58:51.303Z,3516.00
2018-06-12T07:59:51.273Z,3956.00
2018-06-12T08:00:51.279Z,5184.00
2018-06-12T08:01:51.276Z,5524.00
2018-06-12T08:02:51.236Z,4164.00
2018-06-12T08:03:51.287Z,5332.00
2018-06-12T08:04:51.214Z,4904.00
2018-06-12T08:05:51.208Z,4300.00
2018-06-12T08:06:51.194Z,3676.00
2018-06-12T08:07:51.201Z,3804.00
2018-06-12T08:08:51.199Z,4912.00
2018-06-12T08:09:51.241Z,7548.00
2018-06-12T08:10:51.159Z,7764.00
2018-06-12T08:11:51.170Z,8000.00
2018-06-12T08:12:51.250Z,6532.00
2018-06-12T08:13:51.150Z,5328.00
2018-06-12T08:14:51.141Z,5088.00
2018-06-12T08:15:51.146Z,6072.00
2018-06-12T08:16:51.144Z,4940.00
2018-06-12T08:17:51.126Z,5324.00
2018-06-12T08:18:51.143Z,4684.00
2018-06-12T08:19:51.092Z,4336.00
2018-06-12T08:20:51.084Z,5628.00
2018-06-12T08:21:51.092Z,6760.00
2018-06-12T08:22:51.078Z,6540.00
2018-06-12T08:23:51.079Z,5164.00
2018-06-12T08:24:51.073Z,6540.00
2018-06-12T08:25:51.057Z,5784.00
2018-06-12T08:26:51.054Z,8676.00
2018-06-12T08:27:51.051Z,10136.00
2018-06-12T08:28:51.060Z,10128.00
2018-06-12T08:29:51.155Z,10636.00
2018-06-12T08:30:51.012Z,15872.00
2018-06-12T08:31:51.018Z,12684.00
2018-06-12T08:32:51.008Z,13792.00
2018-06-12T08:33:51.030Z,12152.00
2018-06-12T08:34:51.010Z,12836.00
2018-06-12T08:35:50.973Z,10244.00
2018-06-12T08:36:51.040Z,5324.00
2018-06-12T08:37:50.957Z,4976.00
2018-06-12T08:38:50.956Z,3892.00
2018-06-12T08:39:50.990Z,3412.00
2018-06-12T08:40:51.106Z,4448.00
2018-06-12T08:41:50.940Z,4392.00
2018-06-12T08:42:50.933Z,3292.00
2018-06-12T08:43:50.915Z,2360.00
2018-06-12T08:44:50.913Z,2612.00
2018-06-12T08:45:50.909Z,2512.00
2018-06-12T08:46:50.898Z,2552.00
2018-06-12T08:47:50.936Z,2300.00
2018-06-12T08:48:50.874Z,2604.00
2018-06-12T08:49:50.877Z,3140.00
2018-06-12T08:50:50.869Z,3252.00
2018-06-12T08:51:50.861Z,3980.00
2018-06-12T08:52:50.861Z,3924.00
2018-06-12T08:53:50.841Z,3648.00
2018-06-12T08:54:50.855Z,3464.00
2018-06-12T08:55:50.833Z,3388.00
2018-06-12T08:56:50.840Z,3712.00
2018-06-12T08:57:50.811Z,3932.00
2018-06-12T08:58:50.811Z,4092.00
2018-06-12T08:59:50.799Z,3996.00
2018-06-12T09:00:50.791Z,3296.00
2018-06-12T09:01:50.774Z,3088.00
2018-06-12T09:02:50.818Z,3440.00
2018-06-12T09:03:50.763Z,3404.00
2018-06-12T09:04:50.748Z,3292.00
2018-06-12T09:05:50.783Z,4900.00
2018-06-12T09:06:50.747Z,5436.00
2018-06-12T09:07:50.735Z,5300.00
2018-06-12T09:08:50.749Z,4484.00
2018-06-12T09:09:50.720Z,4008.00
2018-06-12T09:10:50.719Z,4364.00
2018-06-12T09:11:50.699Z,4468.00
2018-06-12T09:12:50.769Z,3756.00
2018-06-12T09:13:50.707Z,2912.00
2018-06-12T09:14:50.668Z,2820.00
2018-06-12T09:15:50.679Z,5048.00
2018-06-12T09:16:50.669Z,5848.00
2018-06-12T09:17:50.734Z,5924.00
2018-06-12T09:18:50.644Z,5228.00
2018-06-12T09:19:50.640Z,5900.00
2018-06-12T09:20:50.636Z,5548.00
2018-06-12T09:21:50.658Z,4812.00
2018-06-12T09:22:50.614Z,3712.00
2018-06-12T09:23:50.612Z,4200.00
2018-06-12T09:24:50.598Z,4712.00
2018-06-12T09:25:50.598Z,4512.00
2018-06-12T09:26:50.581Z,4636.00
2018-06-12T09:27:50.596Z,4632.00
2018-06-12T09:28:50.705Z,5824.00
2018-06-12T09:29:50.556Z,4396.00
2018-06-12T09:30:50.542Z,8104.00
2018-06-12T09:31:50.539Z,12800.00
2018-06-12T09:32:50.533Z,9232.00
2018-06-12T09:33:50.537Z,9304.00
2018-06-12T09:34:50.526Z,8300.00
2018-06-12T09:35:50.513Z,8200.00
2018-06-12T09:36:50.498Z,9484.00
2018-06-12T09:37:50.484Z,8440.00
2018-06-12T09:38:50.482Z,5772.00
2018-06-12T09:39:50.911Z,5892.00
2018-06-12T09:40:50.466Z,5724.00
2018-06-12T09:41:50.463Z,5924.00
2018-06-12T09:42:50.470Z,10368.00
2018-06-12T09:43:50.452Z,5488.00
2018-06-12T09:44:50.450Z,5412.00
2018-06-12T09:45:50.454Z,5588.00
2018-06-12T09:46:50.426Z,7880.00
2018-06-12T09:47:50.423Z,7660.00
2018-06-12T09:48:50.421Z,6084.00
2018-06-12T09:49:50.406Z,4884.00
2018-06-12T09:50:50.437Z,4908.00
2018-06-12T09:51:50.423Z,5216.00
2018-06-12T09:52:50.376Z,6292.00
2018-06-12T09:53:50.378Z,15840.00
2018-06-12T09:54:50.372Z,10180.00
2018-06-12T09:55:50.384Z,14112.00
2018-06-12T09:56:50.374Z,11048.00
2018-06-12T09:57:50.429Z,14688.00
2018-06-12T09:58:50.335Z,8464.00
2018-06-12T09:59:50.329Z,66464.00
2018-06-12T10:00:50.331Z,30784.00
2018-06-12T10:01:50.343Z,24448.00
2018-06-12T10:02:50.377Z,5908.00
2018-06-12T10:03:50.299Z,4248.00
2018-06-12T10:04:50.305Z,4440.00
2018-06-12T10:05:50.298Z,3640.00
2018-06-12T10:06:50.278Z,3884.00
2018-06-12T10:07:50.325Z,4272.00
2018-06-12T10:08:50.316Z,40608.00
2018-06-12T10:09:50.264Z,27616.00
2018-06-12T10:10:50.265Z,12560.00
2018-06-12T10:11:50.322Z,31488.00
2018-06-12T10:12:50.255Z,48320.00
2018-06-12T10:13:50.388Z,29696.00
2018-06-12T10:14:50.231Z,66208.00
2018-06-12T10:15:50.240Z,67456.00
2018-06-12T10:16:50.225Z,21152.00
2018-06-12T10:17:50.228Z,96192.00
2018-06-12T10:18:50.232Z,72768.00
2018-06-12T10:19:50.216Z,82496.00
2018-06-12T10:20:50.203Z,74016.00
2018-06-12T10:21:50.201Z,83232.00
2018-06-12T10:22:50.203Z,81280.00
2018-06-12T10:23:50.204Z,104416.00
2018-06-12T10:24:50.240Z,26560.00
2018-06-12T10:25:50.208Z,8372.00
2018-06-12T10:26:50.200Z,3944.00
2018-06-12T10:27:50.201Z,5964.00
2018-06-12T10:28:50.184Z,32480.00
2018-06-12T10:29:50.301Z,30304.00
2018-06-12T10:30:50.185Z,6844.00
2018-06-12T10:31:50.185Z,6192.00
2018-06-12T10:32:50.186Z,6116.00
2018-06-12T10:33:50.212Z,4300.00
2018-06-12T10:34:50.192Z,3104.00
2018-06-12T10:35:50.184Z,2772.00
2018-06-12T10:36:50.182Z,2832.00
2018-06-12T10:37:50.171Z,3456.00
2018-06-12T10:38:50.174Z,3136.00
2018-06-12T10:39:50.180Z,4580.00
2018-06-12T10:40:51.229Z,5948.00
2018-06-12T10:41:50.171Z,97216.00
2018-06-12T10:42:50.174Z,93568.00
2018-06-12T10:43:50.157Z,19552.00
2018-06-12T10:44:50.158Z,6056.00
2018-06-12T10:45:50.177Z,12088.00
2018-06-12T10:46:50.140Z,10720.00
2018-06-12T10:47:50.159Z,8164.00
2018-06-12T10:48:50.182Z,7132.00
2018-06-12T10:49:50.142Z,6360.00
2018-06-12T10:50:50.139Z,4372.00
2018-06-12T10:51:50.140Z,3232.00
2018-06-12T10:52:50.441Z,2412.00
2018-06-12T10:53:50.126Z,2756.00
2018-06-12T10:54:50.123Z,3872.00
2018-06-12T10:55:50.111Z,5412.00
2018-06-12T10:56:50.104Z,5932.00
2018-06-12T10:57:50.098Z,38976.00
2018-06-12T10:58:50.132Z,19968.00
2018-06-12T10:59:50.094Z,27136.00
2018-06-12T11:00:50.099Z,19104.00
2018-06-12T11:01:50.082Z,19712.00
2018-06-12T11:02:50.074Z,34112.00
2018-06-12T11:03:50.063Z,99904.00
2018-06-12T11:04:50.082Z,24992.00
2018-06-12T11:05:50.062Z,67328.00
2018-06-12T11:06:50.055Z,96640.00
2018-06-12T11:07:50.052Z,104832.00
2018-06-12T11:08:50.051Z,20288.00
2018-06-12T11:09:50.047Z,5136.00
2018-06-12T11:10:50.096Z,4720.00
2018-06-12T11:11:50.046Z,4360.00
2018-06-12T11:12:50.051Z,4492.00
2018-06-12T11:13:50.046Z,4152.00
2018-06-12T11:14:50.063Z,3588.00
2018-06-12T11:15:50.365Z,4072.00
2018-06-12T11:16:50.030Z,4128.00
2018-06-12T11:17:50.022Z,3752.00
2018-06-12T11:18:50.023Z,4068.00
2018-06-12T11:19:50.009Z,2816.00
2018-06-12T11:20:50.050Z,2888.00
2018-06-12T11:21:50.024Z,47232.00
2018-06-12T11:22:50.010Z,4444.00
2018-06-12T11:23:50.003Z,2916.00
2018-06-12T11:24:50.017Z,2396.00
2018-06-12T11:25:49.988Z,2344.00
2018-06-12T11:26:50.026Z,2484.00
2018-06-12T11:27:49.995Z,3156.00
2018-06-12T11:28:49.980Z,8404.00
2018-06-12T11:29:49.973Z,11544.00
2018-06-12T11:30:49.964Z,4920.00
2018-06-12T11:31:49.981Z,3936.00
2018-06-12T11:32:49.962Z,3376.00
2018-06-12T11:33:49.954Z,4316.00
2018-06-12T11:34:49.952Z,6104.00
2018-06-12T11:35:49.945Z,16704.00
2018-06-12T11:36:49.975Z,5480.00
2018-06-12T11:37:49.973Z,4716.00
2018-06-12T11:38:49.928Z,4404.00
2018-06-12T11:39:49.929Z,4148.00
2018-06-12T11:40:49.912Z,5312.00
2018-06-12T11:41:49.921Z,4364.00
2018-06-12T11:42:49.957Z,4292.00
2018-06-12T11:43:50.034Z,4504.00
2018-06-12T11:44:50.173Z,57888.00
2018-06-12T11:45:49.895Z,5432.00
2018-06-12T11:46:49.875Z,5232.00
2018-06-12T11:47:49.877Z,4768.00
2018-06-12T11:48:49.878Z,4608.00
2018-06-12T11:49:49.878Z,4220.00
2018-06-12T11:50:49.863Z,4676.00
2018-06-12T11:51:49.867Z,7800.00
2018-06-12T11:52:49.881Z,6920.00
2018-06-12T11:53:49.848Z,6884.00
2018-06-12T11:54:49.857Z,14432.00
2018-06-12T11:55:49.839Z,6028.00
2018-06-12T11:56:49.843Z,6340.00
2018-06-12T11:57:49.831Z,6136.00
2018-06-12T11:58:49.809Z,5376.00
2018-06-12T11:59:49.845Z,4040.00
2018-06-12T12:00:49.811Z,4452.00
2018-06-12T12:01:49.824Z,5648.00
2018-06-12T12:02:49.802Z,6072.00
2018-06-12T12:03:49.795Z,4328.00
2018-06-12T12:04:49.808Z,3832.00
2018-06-12T12:05:49.815Z,5444.00
2018-06-12T12:06:49.768Z,4240.00
2018-06-12T12:07:49.766Z,3032.00
2018-06-12T12:08:49.752Z,3528.00
2018-06-12T12:09:49.788Z,4716.00
2018-06-12T12:10:49.748Z,4204.00
2018-06-12T12:11:49.953Z,3380.00
2018-06-12T12:12:49.732Z,3336.00
2018-06-12T12:13:49.723Z,3208.00
2018-06-12T12:14:49.730Z,3480.00
2018-06-12T12:15:49.720Z,3900.00
2018-06-12T12:16:49.759Z,3936.00
2018-06-12T12:17:49.698Z,4780.00
2018-06-12T12:18:49.701Z,4548.00
2018-06-12T12:19:49.752Z,4436.00
2018-06-12T12:20:49.693Z,4784.00
2018-06-12T12:21:49.687Z,4580.00
2018-06-12T12:22:49.672Z,4732.00
2018-06-12T12:23:49.672Z,4548.00
2018-06-12T12:24:49.652Z,5148.00
2018-06-12T12:25:49.699Z,4344.00
2018-06-12T12:26:49.649Z,4312.00
2018-06-12T12:27:49.634Z,4444.00
2018-06-12T12:28:49.635Z,4600.00
2018-06-12T12:29:49.688Z,4684.00
2018-06-12T12:30:49.620Z,4928.00
2018-06-12T12:31:49.615Z,4308.00
2018-06-12T12:32:49.605Z,4588.00
2018-06-12T12:33:49.603Z,4792.00
2018-06-12T12:34:49.592Z,5016.00
2018-06-12T12:35:49.593Z,4564.00
2018-06-12T12:36:49.629Z,3868.00
2018-06-12T12:37:49.564Z,4012.00
2018-06-12T12:38:49.566Z,4148.00
2018-06-12T12:39:49.573Z,4564.00
2018-06-12T12:40:49.598Z,4372.00
2018-06-12T12:41:49.547Z,4384.00
2018-06-12T12:42:49.579Z,4916.00
2018-06-12T12:43:49.533Z,4708.00
2018-06-12T12:44:49.519Z,4280.00
2018-06-12T12:45:49.515Z,4148.00
2018-06-12T12:46:49.554Z,3916.00
2018-06-12T12:47:49.506Z,3684.00
2018-06-12T12:48:49.535Z,3836.00
2018-06-12T12:49:49.500Z,3636.00
2018-06-12T12:50:49.512Z,3752.00
2018-06-12T12:51:49.494Z,3672.00
2018-06-12T12:52:50.425Z,3416.00
2018-06-12T12:53:49.579Z,2936.00
2018-06-12T12:54:49.470Z,2600.00
2018-06-12T12:55:49.465Z,2508.00
2018-06-12T12:56:49.451Z,2372.00
2018-06-12T12:57:49.451Z,2232.00
2018-06-12T12:58:49.481Z,2096.00
2018-06-12T12:59:49.469Z,1904.00
2018-06-12T13:00:49.412Z,1756.00
2018-06-12T13:01:49.429Z,1788.00
2018-06-12T13:02:49.408Z,1628.00
2018-06-12T13:03:49.457Z,1596.00
2018-06-12T13:04:49.405Z,1576.00
2018-06-12T13:05:49.413Z,1548.00
2018-06-12T13:06:49.385Z,1572.00
2018-06-12T13:07:49.383Z,1532.00
2018-06-12T13:08:49.414Z,1684.00